Buoy 43533

sailwx.info

Track history (hours):
 
Tides and Currents Weather Stations Pressure Air Temp Water Temp Dewpoint Dewpoint Depression Visibility Wind Speed Wind Dir Waves Ship Positions

Drifting buoy 43533

Last reported at 2017-May-26 06:00 UTC. Time now 2017-May-26 07:25 UTC.
Position N 17°51' W 120°52'.

Length 24 m.

Type: Fishing. MMSI: 412466549.

Water temperature 23.6 ° C

Date/timePositionNaut miles runAvg speedWind from/ knotsBaromVisibWave heightAir tempDewpointWater temp
2017-May-26 06:00N 17°51' W 120°52'1 0.6 23.6
2017-May-26 05:00N 17°52' W 120°52'1 1.3 23.7
2017-May-26 04:00N 17°52' W 120°53'0 0.0 23.7
2017-May-26 03:00N 17°52' W 120°53'1 0.6 23.7
2017-May-26 02:00N 17°52' W 120°54'1 1.3 23.7
2017-May-26 01:00N 17°53' W 120°55'0 0.0 23.7
2017-May-26 00:00N 17°53' W 120°55'0 0.0 23.6
2017-May-25 22:00N 17°53' W 120°55'3 0.8 23.6
2017-May-25 18:00N 17°55' W 120°58'1 0.6 23.6
2017-May-25 17:00N 17°55' W 120°58'1 0.8 23.6
2017-May-25 16:00N 17°56' W 120°59'0 0.0 23.4
2017-May-25 15:00N 17°56' W 120°59'0 0.0 23.4
2017-May-25 14:00N 17°56' W 120°59'1 0.6 23.4
2017-May-25 13:00N 17°56' W 120°59'1 0.8 23.4
2017-May-25 12:00N 17°57' W 120°59'3 2.9 23.4
2017-May-25 11:00N 17°59' W 121°02'3 2.9 23.4
2017-May-25 10:00N 17°57' W 120°59'3 0.8 23.4
2017-May-25 06:00N 17°59' W 121°02'0 0.0 23.5
2017-May-25 05:00N 17°59' W 121°02'1 0.8 23.5
2017-May-25 04:00N 18°00' W 121°02'0 0.0 23.6
2017-May-25 03:00N 18°00' W 121°02'1 0.6 23.6
2017-May-25 02:00N 18°01' W 121°02'2 1.2 23.6
2017-May-25 00:00N 18°03' W 121°02'0 0.0 23.6
2017-May-24 23:00N 18°03' W 121°02'0 0.0 23.6
2017-May-24 22:00N 18°03' W 121°02'1 0.2 23.6
2017-May-24 18:00N 18°04' W 121°03'1 0.6 23.2
2017-May-24 17:00N 18°04' W 121°02'1 0.6 23.1
2017-May-24 16:00N 18°04' W 121°03'0 0.0 23.1
2017-May-24 15:00N 18°04' W 121°03'1 0.8 23.1
2017-May-24 14:00N 18°04' W 121°02'0 0.0 23.1
2017-May-24 13:00N 18°04' W 121°02'2 1.2 23.1
2017-May-24 11:00N 18°07' W 121°02'0 0.0 23.1
2017-May-24 10:00N 18°07' W 121°02'1 0.1 23.1
2017-May-24 06:00N 18°07' W 121°01'1 0.8 23.1
2017-May-24 05:00N 18°07' W 121°02'1 0.6 23.2
2017-May-24 04:00N 18°08' W 121°02'1 0.3 23.2
2017-May-24 02:00N 18°08' W 121°01'1 0.4 23.4
2017-May-23 23:00N 18°08' W 121°02'2 0.4 23.6
2017-May-23 18:00N 18°10' W 121°04'1 0.6 23.4
2017-May-23 17:00N 18°10' W 121°04'0 0.0 23.1
2017-May-23 16:00N 18°10' W 121°04'0 0.0 23.1
2017-May-23 15:00N 18°10' W 121°04'1 0.6 23.0
2017-May-23 14:00N 18°10' W 121°04'1 0.6 23.0
2017-May-23 13:00N 18°10' W 121°04'0 0.0 23.0
2017-May-23 12:00N 18°10' W 121°04'1 0.6 23.0
2017-May-23 11:00N 18°11' W 121°04'1 1.2 23.0
2017-May-23 10:00N 18°12' W 121°04'1 1.2 23.0
2017-May-23 09:00N 18°11' W 121°04'1 0.4 23.0
2017-May-23 06:00N 18°12' W 121°04'1 0.6 23.1
2017-May-23 05:00N 18°13' W 121°04'1 0.6 23.0
2017-May-23 04:00N 18°13' W 121°04'0 0.0 23.1
2017-May-23 02:00N 18°13' W 121°04'1 1.2 23.1
2017-May-23 01:00N 18°14' W 121°04'0 0.0 23.1
2017-May-23 00:00N 18°14' W 121°04'0 0.0 23.1
2017-May-22 23:00N 18°14' W 121°04'1 0.3 23.2
2017-May-22 21:00N 18°15' W 121°04'1 0.7 23.1
2017-May-22 19:00N 18°16' W 121°05'0 0.0 23.0
2017-May-22 18:00N 18°16' W 121°05'1 0.8 22.9
2017-May-22 17:00N 18°17' W 121°05'0 0.0 22.9
2017-May-22 16:00N 18°17' W 121°05'1 0.6 22.9
2017-May-22 15:00N 18°17' W 121°06'1 0.8 22.9
2017-May-22 14:00N 18°17' W 121°05'1 0.6 22.9
2017-May-22 12:00N 18°18' W 121°07'0 0.0 22.9
2017-May-22 11:00N 18°18' W 121°07'1 1.2 22.9
2017-May-22 10:00N 18°19' W 121°07'1 0.6 22.9
2017-May-22 09:00N 18°19' W 121°07'1 0.2 22.9
2017-May-22 06:00N 18°19' W 121°07'1 0.8 22.9
2017-May-22 05:00N 18°20' W 121°06'0 0.0 22.9
2017-May-22 04:00N 18°20' W 121°06'1 0.4 22.9
2017-May-22 02:00N 18°20' W 121°07'1 0.6 22.9
2017-May-22 01:00N 18°21' W 121°07'0 0.0 23.0
2017-May-22 00:00N 18°21' W 121°07'0 0.0 23.0
2017-May-21 23:00N 18°21' W 121°07'1 0.6 23.1
2017-May-21 21:00N 18°22' W 121°07'0 0.0 22.9
2017-May-21 18:00N 18°22' W 121°07'1 0.6 22.9
2017-May-21 17:00N 18°23' W 121°07'1 0.6 22.9
2017-May-21 16:00N 18°22' W 121°07'1 0.6 22.9
2017-May-21 15:00N 18°22' W 121°07'1 1.3 22.9
2017-May-21 14:00N 18°23' W 121°07'0 0.0 22.9
2017-May-21 13:00N 18°23' W 121°07'1 1.2 22.9
2017-May-21 12:00N 18°25' W 121°07'0 0.0 22.9
2017-May-21 11:00N 18°25' W 121°07'1 1.2 22.9
2017-May-21 10:00N 18°26' W 121°07'0 0.0 22.9
2017-May-21 06:00N 18°26' W 121°07'1 0.6 22.9
2017-May-21 05:00N 18°26' W 121°07'1 1.3 22.9
2017-May-21 04:00N 18°27' W 121°07'1 0.6 23.0
2017-May-21 02:00N 18°28' W 121°08'1 0.8 23.1
2017-May-21 01:00N 18°28' W 121°07'2 0.9 23.1
2017-May-20 23:00N 18°29' W 121°09'0 0.0 23.1
2017-May-20 22:00N 18°29' W 121°09'0 0.0 23.1
2017-May-20 21:00N 18°29' W 121°09'2 1.0 23.1
2017-May-20 19:00N 18°30' W 121°11'1 0.6 23.0
2017-May-20 18:00N 18°30' W 121°10'0 0.0 22.9
2017-May-20 17:00N 18°30' W 121°10'1 0.8 22.9
2017-May-20 16:00N 18°31' W 121°11'0 0.0 22.9
2017-May-20 15:00N 18°31' W 121°11'0 0.0 22.9
2017-May-20 14:00N 18°31' W 121°11'0 0.0 22.9
2017-May-20 13:00N 18°31' W 121°11'1 0.8 22.9
2017-May-20 12:00N 18°31' W 121°11'0 0.0 22.9
2017-May-20 11:00N 18°31' W 121°11'1 1.2 22.9
2017-May-20 10:00N 18°32' W 121°11'1 0.3 22.9
2017-May-20 06:00N 18°34' W 121°11'1 0.8 22.9
2017-May-20 05:00N 18°34' W 121°11'1 0.6 23.0
2017-May-20 04:00N 18°35' W 121°11'1 0.6 23.0
2017-May-20 03:00N 18°35' W 121°11'1 0.6 23.0
2017-May-20 02:00N 18°36' W 121°11'1 0.8 23.1
2017-May-20 01:00N 18°37' W 121°12'1 0.8 23.1
2017-May-20 00:00N 18°37' W 121°11'1 0.8 23.1
2017-May-19 23:00N 18°38' W 121°12'1 0.6 23.1
2017-May-19 22:00N 18°38' W 121°13'0 0.0 23.1
2017-May-19 21:00N 18°38' W 121°13'3 1.0 23.1
2017-May-19 18:00N 18°41' W 121°13'1 0.6 22.9
2017-May-19 17:00N 18°41' W 121°13'2 1.8 22.9
2017-May-19 16:00N 18°43' W 121°13'0 0.0 22.9
2017-May-19 15:00N 18°43' W 121°13'1 0.6 22.8
2017-May-19 14:00N 18°43' W 121°13'2 0.9 22.8
2017-May-19 12:00N 18°44' W 121°13'2 2.1 22.9
2017-May-19 11:00N 18°46' W 121°14'1 1.2 22.9
2017-May-19 10:00N 18°45' W 121°14'1 0.3 22.9
2017-May-19 06:00N 18°46' W 121°14'0 0.0 22.9
2017-May-19 05:00N 18°46' W 121°14'1 1.2 22.9
2017-May-19 04:00N 18°47' W 121°14'1 0.6 22.9
2017-May-19 03:00N 18°47' W 121°13'1 0.6 22.9
2017-May-19 02:00N 18°48' W 121°13'0 0.0 22.9
2017-May-19 01:00N 18°48' W 121°13'0 0.0 22.9
2017-May-19 00:00N 18°48' W 121°13'1 0.6 22.9
2017-May-18 23:00N 18°49' W 121°13'2 1.9 22.9
2017-May-18 22:00N 18°50' W 121°14'0 0.0 22.9
2017-May-18 21:00N 18°50' W 121°14'1 0.2 22.9
2017-May-18 18:00N 18°50' W 121°13'0 0.0 22.8
2017-May-18 17:00N 18°50' W 121°13'1 0.6 22.8
2017-May-18 16:00N 18°51' W 121°13'1 0.6 22.8
2017-May-18 15:00N 18°50' W 121°13'1 0.8 22.8
2017-May-18 14:00N 18°51' W 121°13'0 0.0 22.8
2017-May-18 13:00N 18°51' W 121°13'1 0.8 22.8
2017-May-18 12:00N 18°52' W 121°13'2 1.7 22.9
2017-May-18 11:00N 18°53' W 121°12'2 1.7 22.8
2017-May-18 10:00N 18°52' W 121°13'2 0.4 22.9
2017-May-18 06:00N 18°53' W 121°12'1 0.8 22.9
2017-May-18 05:00N 18°53' W 121°11'1 0.6 22.9
2017-May-18 04:00N 18°54' W 121°11'1 0.6 22.9
2017-May-18 03:00N 18°54' W 121°11'1 0.6 22.9
2017-May-18 02:00N 18°55' W 121°11'0 0.0 22.9
2017-May-18 00:00N 18°55' W 121°11'0 0.0 22.9
2017-May-17 22:00N 18°55' W 121°11'1 0.2 22.9
2017-May-17 18:00N 18°55' W 121°10'1 1.3 22.9
2017-May-17 17:00N 18°54' W 121°11'1 1.3 22.9
2017-May-17 16:00N 18°55' W 121°10'1 0.3 22.9
2017-May-17 14:00N 18°55' W 121°10'0 0.0 22.9
2017-May-17 13:00N 18°55' W 121°10'1 0.3 22.9
2017-May-17 11:00N 18°55' W 121°10'0 0.0 22.9
2017-May-17 10:00N 18°55' W 121°10'1 0.2 22.9
2017-May-17 05:00N 18°56' W 121°10'1 0.6 22.9
2017-May-17 04:00N 18°56' W 121°09'1 0.3 22.9
2017-May-17 02:00N 18°56' W 121°08'1 0.3 23.0
2017-May-17 00:00N 18°56' W 121°08'1 0.6 23.1
2017-May-16 23:00N 18°56' W 121°08'1 0.6 23.1
2017-May-16 22:00N 18°56' W 121°08'1 0.1 23.1
2017-May-16 18:00N 18°56' W 121°07'1 0.8 22.9
2017-May-16 17:00N 18°56' W 121°08'1 1.1 22.9
2017-May-16 16:00N 18°56' W 121°07'1 0.6 22.9
2017-May-16 15:00N 18°56' W 121°06'0 0.0 22.9
2017-May-16 14:00N 18°56' W 121°06'1 1.2 22.9
2017-May-16 13:00N 18°58' W 121°06'0 0.0 22.9
2017-May-16 12:00N 18°58' W 121°06'0 0.0 22.9
2017-May-16 11:00N 18°58' W 121°06'0 0.0 22.9
2017-May-16 06:00N 18°58' W 121°06'   22.9
Track history (hours):
 
Tides and Currents Weather Stations Pressure Air Temp Water Temp Dewpoint Dewpoint Depression Visibility Wind Speed Wind Dir Waves Ship Positions

Drifting buoy 43533

Last reported at 2017-May-26 06:00 UTC. Time now 2017-May-26 07:25 UTC.
Position N 17°51' W 120°52'.

Length 24 m.

Type: Fishing. MMSI: 412466549.

Water temperature 23.6 ° C

Date/timePositionNaut miles runAvg speedWind from/ knotsBaromVisibWave heightAir tempDewpointWater temp
2017-May-26 06:00N 17°51' W 120°52'1 0.6 23.6
2017-May-26 05:00N 17°52' W 120°52'1 1.3 23.7
2017-May-26 04:00N 17°52' W 120°53'0 0.0 23.7
2017-May-26 03:00N 17°52' W 120°53'1 0.6 23.7
2017-May-26 02:00N 17°52' W 120°54'1 1.3 23.7
2017-May-26 01:00N 17°53' W 120°55'0 0.0 23.7
2017-May-26 00:00N 17°53' W 120°55'0 0.0 23.6
2017-May-25 22:00N 17°53' W 120°55'3 0.8 23.6
2017-May-25 18:00N 17°55' W 120°58'1 0.6 23.6
2017-May-25 17:00N 17°55' W 120°58'1 0.8 23.6
2017-May-25 16:00N 17°56' W 120°59'0 0.0 23.4
2017-May-25 15:00N 17°56' W 120°59'0 0.0 23.4
2017-May-25 14:00N 17°56' W 120°59'1 0.6 23.4
2017-May-25 13:00N 17°56' W 120°59'1 0.8 23.4
2017-May-25 12:00N 17°57' W 120°59'3 2.9 23.4
2017-May-25 11:00N 17°59' W 121°02'3 2.9 23.4
2017-May-25 10:00N 17°57' W 120°59'3 0.8 23.4
2017-May-25 06:00N 17°59' W 121°02'0 0.0 23.5
2017-May-25 05:00N 17°59' W 121°02'1 0.8 23.5
2017-May-25 04:00N 18°00' W 121°02'0 0.0 23.6
2017-May-25 03:00N 18°00' W 121°02'1 0.6 23.6
2017-May-25 02:00N 18°01' W 121°02'2 1.2 23.6
2017-May-25 00:00N 18°03' W 121°02'0 0.0 23.6
2017-May-24 23:00N 18°03' W 121°02'0 0.0 23.6
2017-May-24 22:00N 18°03' W 121°02'1 0.2 23.6
2017-May-24 18:00N 18°04' W 121°03'1 0.6 23.2
2017-May-24 17:00N 18°04' W 121°02'1 0.6 23.1
2017-May-24 16:00N 18°04' W 121°03'0 0.0 23.1
2017-May-24 15:00N 18°04' W 121°03'1 0.8 23.1
2017-May-24 14:00N 18°04' W 121°02'0 0.0 23.1
2017-May-24 13:00N 18°04' W 121°02'2 1.2 23.1
2017-May-24 11:00N 18°07' W 121°02'0 0.0 23.1
2017-May-24 10:00N 18°07' W 121°02'1 0.1 23.1
2017-May-24 06:00N 18°07' W 121°01'1 0.8 23.1
2017-May-24 05:00N 18°07' W 121°02'1 0.6 23.2
2017-May-24 04:00N 18°08' W 121°02'1 0.3 23.2
2017-May-24 02:00N 18°08' W 121°01'1 0.4 23.4
2017-May-23 23:00N 18°08' W 121°02'2 0.4 23.6
2017-May-23 18:00N 18°10' W 121°04'1 0.6 23.4
2017-May-23 17:00N 18°10' W 121°04'0 0.0 23.1
2017-May-23 16:00N 18°10' W 121°04'0 0.0 23.1
2017-May-23 15:00N 18°10' W 121°04'1 0.6 23.0
2017-May-23 14:00N 18°10' W 121°04'1 0.6 23.0
2017-May-23 13:00N 18°10' W 121°04'0 0.0 23.0
2017-May-23 12:00N 18°10' W 121°04'1 0.6 23.0
2017-May-23 11:00N 18°11' W 121°04'1 1.2 23.0
2017-May-23 10:00N 18°12' W 121°04'1 1.2 23.0
2017-May-23 09:00N 18°11' W 121°04'1 0.4 23.0
2017-May-23 06:00N 18°12' W 121°04'1 0.6 23.1
2017-May-23 05:00N 18°13' W 121°04'1 0.6 23.0
2017-May-23 04:00N 18°13' W 121°04'0 0.0 23.1
2017-May-23 02:00N 18°13' W 121°04'1 1.2 23.1
2017-May-23 01:00N 18°14' W 121°04'0 0.0 23.1
2017-May-23 00:00N 18°14' W 121°04'0 0.0 23.1
2017-May-22 23:00N 18°14' W 121°04'1 0.3 23.2
2017-May-22 21:00N 18°15' W 121°04'1 0.7 23.1
2017-May-22 19:00N 18°16' W 121°05'0 0.0 23.0
2017-May-22 18:00N 18°16' W 121°05'1 0.8 22.9
2017-May-22 17:00N 18°17' W 121°05'0 0.0 22.9
2017-May-22 16:00N 18°17' W 121°05'1 0.6 22.9
2017-May-22 15:00N 18°17' W 121°06'1 0.8 22.9
2017-May-22 14:00N 18°17' W 121°05'1 0.6 22.9
2017-May-22 12:00N 18°18' W 121°07'0 0.0 22.9
2017-May-22 11:00N 18°18' W 121°07'1 1.2 22.9
2017-May-22 10:00N 18°19' W 121°07'1 0.6 22.9
2017-May-22 09:00N 18°19' W 121°07'1 0.2 22.9
2017-May-22 06:00N 18°19' W 121°07'1 0.8 22.9
2017-May-22 05:00N 18°20' W 121°06'0 0.0 22.9
2017-May-22 04:00N 18°20' W 121°06'1 0.4 22.9
2017-May-22 02:00N 18°20' W 121°07'1 0.6 22.9
2017-May-22 01:00N 18°21' W 121°07'0 0.0 23.0
2017-May-22 00:00N 18°21' W 121°07'0 0.0 23.0
2017-May-21 23:00N 18°21' W 121°07'1 0.6 23.1
2017-May-21 21:00N 18°22' W 121°07'0 0.0 22.9
2017-May-21 18:00N 18°22' W 121°07'1 0.6 22.9
2017-May-21 17:00N 18°23' W 121°07'1 0.6 22.9
2017-May-21 16:00N 18°22' W 121°07'1 0.6 22.9
2017-May-21 15:00N 18°22' W 121°07'1 1.3 22.9
2017-May-21 14:00N 18°23' W 121°07'0 0.0 22.9
2017-May-21 13:00N 18°23' W 121°07'1 1.2 22.9
2017-May-21 12:00N 18°25' W 121°07'0 0.0 22.9
2017-May-21 11:00N 18°25' W 121°07'1 1.2 22.9
2017-May-21 10:00N 18°26' W 121°07'0 0.0 22.9
2017-May-21 06:00N 18°26' W 121°07'1 0.6 22.9
2017-May-21 05:00N 18°26' W 121°07'1 1.3 22.9
2017-May-21 04:00N 18°27' W 121°07'1 0.6 23.0
2017-May-21 02:00N 18°28' W 121°08'1 0.8 23.1
2017-May-21 01:00N 18°28' W 121°07'2 0.9 23.1
2017-May-20 23:00N 18°29' W 121°09'0 0.0 23.1
2017-May-20 22:00N 18°29' W 121°09'0 0.0 23.1
2017-May-20 21:00N 18°29' W 121°09'2 1.0 23.1
2017-May-20 19:00N 18°30' W 121°11'1 0.6 23.0
2017-May-20 18:00N 18°30' W 121°10'0 0.0 22.9
2017-May-20 17:00N 18°30' W 121°10'1 0.8 22.9
2017-May-20 16:00N 18°31' W 121°11'0 0.0 22.9
2017-May-20 15:00N 18°31' W 121°11'0 0.0 22.9
2017-May-20 14:00N 18°31' W 121°11'0 0.0 22.9
2017-May-20 13:00N 18°31' W 121°11'1 0.8 22.9
2017-May-20 12:00N 18°31' W 121°11'0 0.0 22.9
2017-May-20 11:00N 18°31' W 121°11'1 1.2 22.9
2017-May-20 10:00N 18°32' W 121°11'1 0.3 22.9
2017-May-20 06:00N 18°34' W 121°11'1 0.8 22.9
2017-May-20 05:00N 18°34' W 121°11'1 0.6 23.0
2017-May-20 04:00N 18°35' W 121°11'1 0.6 23.0
2017-May-20 03:00N 18°35' W 121°11'1 0.6 23.0
2017-May-20 02:00N 18°36' W 121°11'1 0.8 23.1
2017-May-20 01:00N 18°37' W 121°12'1 0.8 23.1
2017-May-20 00:00N 18°37' W 121°11'1 0.8 23.1
2017-May-19 23:00N 18°38' W 121°12'1 0.6 23.1
2017-May-19 22:00N 18°38' W 121°13'0 0.0 23.1
2017-May-19 21:00N 18°38' W 121°13'3 1.0 23.1
2017-May-19 18:00N 18°41' W 121°13'1 0.6 22.9
2017-May-19 17:00N 18°41' W 121°13'2 1.8 22.9
2017-May-19 16:00N 18°43' W 121°13'0 0.0 22.9
2017-May-19 15:00N 18°43' W 121°13'1 0.6 22.8
2017-May-19 14:00N 18°43' W 121°13'2 0.9 22.8
2017-May-19 12:00N 18°44' W 121°13'2 2.1 22.9
2017-May-19 11:00N 18°46' W 121°14'1 1.2 22.9
2017-May-19 10:00N 18°45' W 121°14'1 0.3 22.9
2017-May-19 06:00N 18°46' W 121°14'0 0.0 22.9
2017-May-19 05:00N 18°46' W 121°14'1 1.2 22.9
2017-May-19 04:00N 18°47' W 121°14'1 0.6 22.9
2017-May-19 03:00N 18°47' W 121°13'1 0.6 22.9
2017-May-19 02:00N 18°48' W 121°13'0 0.0 22.9
2017-May-19 01:00N 18°48' W 121°13'0 0.0 22.9
2017-May-19 00:00N 18°48' W 121°13'1 0.6 22.9
2017-May-18 23:00N 18°49' W 121°13'2 1.9 22.9
2017-May-18 22:00N 18°50' W 121°14'0 0.0 22.9
2017-May-18 21:00N 18°50' W 121°14'1 0.2 22.9
2017-May-18 18:00N 18°50' W 121°13'0 0.0 22.8
2017-May-18 17:00N 18°50' W 121°13'1 0.6 22.8
2017-May-18 16:00N 18°51' W 121°13'1 0.6 22.8
2017-May-18 15:00N 18°50' W 121°13'1 0.8 22.8
2017-May-18 14:00N 18°51' W 121°13'0 0.0 22.8
2017-May-18 13:00N 18°51' W 121°13'1 0.8 22.8
2017-May-18 12:00N 18°52' W 121°13'2 1.7 22.9
2017-May-18 11:00N 18°53' W 121°12'2 1.7 22.8
2017-May-18 10:00N 18°52' W 121°13'2 0.4 22.9
2017-May-18 06:00N 18°53' W 121°12'1 0.8 22.9
2017-May-18 05:00N 18°53' W 121°11'1 0.6 22.9
2017-May-18 04:00N 18°54' W 121°11'1 0.6 22.9
2017-May-18 03:00N 18°54' W 121°11'1 0.6 22.9
2017-May-18 02:00N 18°55' W 121°11'0 0.0 22.9
2017-May-18 00:00N 18°55' W 121°11'0 0.0 22.9
2017-May-17 22:00N 18°55' W 121°11'1 0.2 22.9
2017-May-17 18:00N 18°55' W 121°10'1 1.3 22.9
2017-May-17 17:00N 18°54' W 121°11'1 1.3 22.9
2017-May-17 16:00N 18°55' W 121°10'1 0.3 22.9
2017-May-17 14:00N 18°55' W 121°10'0 0.0 22.9
2017-May-17 13:00N 18°55' W 121°10'1 0.3 22.9
2017-May-17 11:00N 18°55' W 121°10'0 0.0 22.9
2017-May-17 10:00N 18°55' W 121°10'1 0.2 22.9
2017-May-17 05:00N 18°56' W 121°10'1 0.6 22.9
2017-May-17 04:00N 18°56' W 121°09'1 0.3 22.9
2017-May-17 02:00N 18°56' W 121°08'1 0.3 23.0
2017-May-17 00:00N 18°56' W 121°08'1 0.6 23.1
2017-May-16 23:00N 18°56' W 121°08'1 0.6 23.1
2017-May-16 22:00N 18°56' W 121°08'1 0.1 23.1
2017-May-16 18:00N 18°56' W 121°07'1 0.8 22.9
2017-May-16 17:00N 18°56' W 121°08'1 1.1 22.9
2017-May-16 16:00N 18°56' W 121°07'1 0.6 22.9
2017-May-16 15:00N 18°56' W 121°06'0 0.0 22.9
2017-May-16 14:00N 18°56' W 121°06'1 1.2 22.9
2017-May-16 13:00N 18°58' W 121°06'0 0.0 22.9
2017-May-16 12:00N 18°58' W 121°06'0 0.0 22.9
2017-May-16 11:00N 18°58' W 121°06'0 0.0 22.9
2017-May-16 06:00N 18°58' W 121°06'   22.9

Dump ship's entire track history